Time;durP1;ratioP1;P1;durP2;ratioP2;P2;SDS_P1;SDS_P2;PMS_P1;PMS_P2;Temp;Humidity;BMP_temperature;BMP_pressure;BME280_temperature;BME280_humidity;BME280_pressure;Samples;Min_cycle;Max_cycle;Signal;HPM_P1;HPM_P2
2023/04/28 00:01:21;;;;;;;5.60;2.67;;;;;;;;;;5058340;28;20033;-79
2023/04/28 00:03:47;;;;;;;5.53;2.58;;;;;;;;;;5053775;28;20029;-79
2023/04/28 00:06:13;;;;;;;8.90;2.67;;;;;;;;;;5060274;28;20036;-79
2023/04/28 00:08:39;;;;;;;7.50;2.80;;;;;;;;;;5053593;28;20049;-79
2023/04/28 00:11:08;;;;;;;7.53;3.15;;;;;;;;;;5063447;28;20036;-80
2023/04/28 00:13:34;;;;;;;6.97;2.80;;;;;;;;;;5032504;28;20507;-79
2023/04/28 00:16:00;;;;;;;5.78;2.17;;;;;;;;;;5039153;28;20044;-80
2023/04/28 00:18:25;;;;;;;7.35;2.95;;;;;;;;;;5056463;28;20040;-80
2023/04/28 00:20:51;;;;;;;8.63;2.70;;;;;;;;;;5057717;28;20916;-80
2023/04/28 00:23:16;;;;;;;6.20;2.65;;;;;;;;;;5045988;28;20037;-79
2023/04/28 00:25:42;;;;;;;6.70;2.70;;;;;;;;;;5042641;28;20052;-80
2023/04/28 00:28:07;;;;;;;6.53;2.60;;;;;;;;;;5056788;28;20075;-80
2023/04/28 00:30:32;;;;;;;5.20;2.50;;;;;;;;;;5056227;28;20029;-79
2023/04/28 00:32:58;;;;;;;5.43;2.65;;;;;;;;;;5058940;28;20123;-80
2023/04/28 00:35:23;;;;;;;5.43;2.55;;;;;;;;;;5054668;28;20085;-80
2023/04/28 00:37:48;;;;;;;6.47;2.60;;;;;;;;;;5054809;28;20064;-80
2023/04/28 00:40:14;;;;;;;5.45;2.47;;;;;;;;;;5053238;28;20041;-80
2023/04/28 00:42:39;;;;;;;6.25;2.47;;;;;;;;;;5054565;28;20526;-79
2023/04/28 00:45:06;;;;;;;5.25;2.47;;;;;;;;;;5054438;28;20060;-80
2023/04/28 00:47:32;;;;;;;6.93;2.70;;;;;;;;;;5055127;28;20028;-79
2023/04/28 00:50:00;;;;;;;6.20;2.70;;;;;;;;;;5063850;28;20136;-80
2023/04/28 00:52:26;;;;;;;5.13;2.70;;;;;;;;;;5054696;28;20420;-79
2023/04/28 00:54:52;;;;;;;6.20;2.58;;;;;;;;;;5070088;28;20084;-80
2023/04/28 00:57:18;;;;;;;4.85;2.55;;;;;;;;;;5056607;28;20498;-80
2023/04/28 00:59:43;;;;;;;6.63;2.67;;;;;;;;;;5060499;28;20148;-80
2023/04/28 01:02:15;;;;;;;6.80;2.60;;;;;;;;;;5041099;28;20048;-80
2023/04/28 01:04:42;;;;;;;4.70;2.45;;;;;;;;;;5053520;28;20036;-80
2023/04/28 01:07:08;;;;;;;4.43;2.50;;;;;;;;;;5063850;28;20559;-79
2023/04/28 01:09:33;;;;;;;6.03;2.50;;;;;;;;;;5055036;28;20040;-79
2023/04/28 01:11:58;;;;;;;4.60;2.10;;;;;;;;;;5060282;28;20052;-80
2023/04/28 01:14:24;;;;;;;6.47;2.17;;;;;;;;;;5052906;28;20033;-80
2023/04/28 01:16:50;;;;;;;6.30;2.40;;;;;;;;;;5052518;28;20029;-80
2023/04/28 01:19:21;;;;;;;6.07;2.42;;;;;;;;;;5060115;28;20036;-80
2023/04/28 01:21:47;;;;;;;5.60;2.40;;;;;;;;;;5062846;28;20033;-80
2023/04/28 01:24:12;;;;;;;5.18;2.28;;;;;;;;;;5054508;28;20102;-80
2023/04/28 01:26:37;;;;;;;6.03;2.22;;;;;;;;;;5057693;28;20037;-79
2023/04/28 01:29:03;;;;;;;5.65;2.13;;;;;;;;;;5057147;28;20049;-79
2023/04/28 01:31:29;;;;;;;4.53;2.17;;;;;;;;;;5074751;28;20048;-80
2023/04/28 01:33:55;;;;;;;6.43;2.35;;;;;;;;;;5050826;28;20040;-80
2023/04/28 01:36:22;;;;;;;7.03;2.65;;;;;;;;;;5061262;28;20520;-80
2023/04/28 01:38:48;;;;;;;6.57;2.40;;;;;;;;;;5052988;28;20025;-79
2023/04/28 01:41:13;;;;;;;4.65;2.40;;;;;;;;;;5053982;28;20518;-80
2023/04/28 01:43:39;;;;;;;5.28;2.30;;;;;;;;;;5051931;28;20033;-79
2023/04/28 01:46:05;;;;;;;7.75;2.42;;;;;;;;;;5052948;28;20085;-79
2023/04/28 01:48:30;;;;;;;5.13;2.00;;;;;;;;;;5052611;28;20591;-80
2023/04/28 01:50:56;;;;;;;3.97;2.03;;;;;;;;;;5053455;28;20090;-79
2023/04/28 01:53:21;;;;;;;6.22;2.33;;;;;;;;;;5055983;28;20098;-80
2023/04/28 01:55:46;;;;;;;5.60;2.78;;;;;;;;;;5045851;28;20029;-79
2023/04/28 01:58:12;;;;;;;5.55;2.80;;;;;;;;;;5057683;28;20044;-80
2023/04/28 02:00:38;;;;;;;6.68;2.67;;;;;;;;;;5052279;28;20036;-80
2023/04/28 02:03:03;;;;;;;5.93;2.55;;;;;;;;;;5052766;28;20477;-79
2023/04/28 02:05:29;;;;;;;6.60;2.38;;;;;;;;;;5055995;28;20043;-80
2023/04/28 02:07:54;;;;;;;4.53;2.20;;;;;;;;;;5055561;28;20048;-80
2023/04/28 02:10:20;;;;;;;4.95;2.30;;;;;;;;;;5041175;28;20131;-80
2023/04/28 02:12:45;;;;;;;4.68;2.10;;;;;;;;;;5058939;28;20496;-80
2023/04/28 02:15:11;;;;;;;5.95;2.60;;;;;;;;;;5056438;28;20032;-80
2023/04/28 02:17:36;;;;;;;7.35;2.40;;;;;;;;;;5062179;28;20449;-79
2023/04/28 02:20:01;;;;;;;5.13;2.50;;;;;;;;;;5057569;28;20033;-80
2023/04/28 02:22:27;;;;;;;8.10;2.90;;;;;;;;;;5066291;28;20053;-80
2023/04/28 02:24:52;;;;;;;7.78;3.00;;;;;;;;;;5060058;28;20579;-80
2023/04/28 02:27:17;;;;;;;5.70;2.88;;;;;;;;;;5055870;28;20060;-79
2023/04/28 02:29:43;;;;;;;7.25;2.80;;;;;;;;;;5056278;28;20053;-79
2023/04/28 02:32:08;;;;;;;7.13;3.28;;;;;;;;;;5065217;28;20062;-80
2023/04/28 02:34:34;;;;;;;5.00;2.35;;;;;;;;;;5061177;28;20033;-79
2023/04/28 02:36:59;;;;;;;7.18;2.88;;;;;;;;;;5046713;28;20036;-80
2023/04/28 02:39:25;;;;;;;5.55;3.00;;;;;;;;;;5056587;28;20025;-80
2023/04/28 02:41:54;;;;;;;5.85;2.83;;;;;;;;;;5062755;28;20029;-81
2023/04/28 02:44:20;;;;;;;7.10;2.63;;;;;;;;;;5060091;28;20040;-81
2023/04/28 02:46:45;;;;;;;6.50;2.85;;;;;;;;;;5057828;28;20483;-80
2023/04/28 02:49:11;;;;;;;5.35;2.45;;;;;;;;;;5062080;28;20024;-80
2023/04/28 02:51:36;;;;;;;5.32;2.22;;;;;;;;;;5062970;28;20037;-80
2023/04/28 02:54:02;;;;;;;8.20;2.80;;;;;;;;;;5055987;28;20112;-80
2023/04/28 02:56:28;;;;;;;5.35;2.33;;;;;;;;;;5062544;28;20097;-80
2023/04/28 02:58:54;;;;;;;5.47;2.45;;;;;;;;;;5060517;28;20083;-80
2023/04/28 03:01:19;;;;;;;5.72;2.58;;;;;;;;;;5063300;28;20048;-80
2023/04/28 03:03:45;;;;;;;5.30;2.55;;;;;;;;;;5055892;28;20099;-80
2023/04/28 03:06:10;;;;;;;6.25;2.90;;;;;;;;;;5041723;28;20063;-80
2023/04/28 03:08:35;;;;;;;7.30;2.88;;;;;;;;;;5044841;28;20044;-80
2023/04/28 03:11:01;;;;;;;5.40;2.38;;;;;;;;;;5064684;28;20119;-80
2023/04/28 03:13:28;;;;;;;7.35;2.40;;;;;;;;;;5060978;28;20825;-80
2023/04/28 03:15:54;;;;;;;7.47;3.00;;;;;;;;;;5057018;28;20044;-81
2023/04/28 03:18:19;;;;;;;4.60;2.30;;;;;;;;;;5058874;28;20046;-80
2023/04/28 03:20:45;;;;;;;4.70;2.10;;;;;;;;;;5059663;28;20028;-80
2023/04/28 03:23:10;;;;;;;6.15;2.80;;;;;;;;;;5060587;28;20041;-80
2023/04/28 03:25:35;;;;;;;5.55;2.67;;;;;;;;;;5065547;28;20048;-79
2023/04/28 03:28:01;;;;;;;5.60;2.80;;;;;;;;;;5063007;28;20051;-80
2023/04/28 03:30:26;;;;;;;4.60;2.30;;;;;;;;;;5074281;28;20041;-80
2023/04/28 03:32:52;;;;;;;7.20;3.40;;;;;;;;;;5063153;28;20029;-80
2023/04/28 03:35:17;;;;;;;4.70;2.30;;;;;;;;;;5061383;28;20071;-80
2023/04/28 03:37:43;;;;;;;6.90;3.03;;;;;;;;;;5065136;28;20524;-80
2023/04/28 03:40:09;;;;;;;6.38;2.58;;;;;;;;;;5064975;28;20045;-80
2023/04/28 03:42:34;;;;;;;6.72;2.88;;;;;;;;;;5061047;28;20048;-79
2023/04/28 03:45:00;;;;;;;6.68;2.85;;;;;;;;;;5044980;28;20408;-80
2023/04/28 03:47:25;;;;;;;6.90;2.78;;;;;;;;;;5062657;28;20028;-80
2023/04/28 03:49:51;;;;;;;8.38;2.70;;;;;;;;;;5059401;28;20045;-80
2023/04/28 03:52:16;;;;;;;7.43;2.80;;;;;;;;;;5059352;28;20032;-80
2023/04/28 03:54:42;;;;;;;7.50;3.33;;;;;;;;;;5066859;28;20033;-79
2023/04/28 03:57:07;;;;;;;7.15;2.90;;;;;;;;;;5064137;28;20041;-79
2023/04/28 03:59:32;;;;;;;6.18;2.78;;;;;;;;;;5061559;28;20041;-79
2023/04/28 04:01:58;;;;;;;8.18;2.30;;;;;;;;;;5061890;28;20169;-79
2023/04/28 04:04:23;;;;;;;5.05;2.33;;;;;;;;;;5063068;28;20040;-80
2023/04/28 04:06:49;;;;;;;7.00;2.97;;;;;;;;;;5061169;28;20021;-79
2023/04/28 04:09:14;;;;;;;8.88;2.53;;;;;;;;;;5061489;28;20059;-78
2023/04/28 04:11:39;;;;;;;6.68;2.58;;;;;;;;;;5045891;28;20071;-78
2023/04/28 04:14:05;;;;;;;7.25;2.97;;;;;;;;;;5058904;28;20550;-78
2023/04/28 04:16:30;;;;;;;8.23;3.20;;;;;;;;;;5060243;28;20041;-80
2023/04/28 04:18:56;;;;;;;5.55;2.53;;;;;;;;;;5043700;28;20124;-79
2023/04/28 04:21:21;;;;;;;7.03;2.80;;;;;;;;;;5037869;28;20033;-79
2023/04/28 04:23:46;;;;;;;5.53;2.70;;;;;;;;;;5057532;28;20041;-79
2023/04/28 04:26:12;;;;;;;7.20;3.10;;;;;;;;;;5054294;28;20110;-80
2023/04/28 04:28:37;;;;;;;9.10;3.20;;;;;;;;;;5036767;28;20108;-79
2023/04/28 04:31:03;;;;;;;8.82;3.13;;;;;;;;;;5051538;28;20069;-80
2023/04/28 04:33:28;;;;;;;7.63;2.85;;;;;;;;;;5052890;28;20028;-80
2023/04/28 04:35:53;;;;;;;6.43;3.03;;;;;;;;;;5050867;28;20059;-80
2023/04/28 04:38:19;;;;;;;6.13;2.80;;;;;;;;;;5037723;28;20042;-79
2023/04/28 04:40:44;;;;;;;6.18;3.13;;;;;;;;;;5052682;28;20037;-79
2023/04/28 04:43:10;;;;;;;6.25;2.80;;;;;;;;;;5061181;28;20075;-79
2023/04/28 04:45:35;;;;;;;5.63;2.60;;;;;;;;;;5055656;28;20507;-79
2023/04/28 04:48:01;;;;;;;5.65;2.83;;;;;;;;;;5055587;28;20595;-80
2023/04/28 04:50:27;;;;;;;5.28;2.65;;;;;;;;;;5052391;28;20403;-80
2023/04/28 04:52:55;;;;;;;9.93;3.30;;;;;;;;;;5057630;28;20033;-80
2023/04/28 04:55:20;;;;;;;8.45;2.83;;;;;;;;;;5050742;28;20119;-80
2023/04/28 04:57:46;;;;;;;8.30;3.60;;;;;;;;;;5053088;28;20219;-80
2023/04/28 05:00:12;;;;;;;6.63;3.40;;;;;;;;;;5038471;28;20118;-80
2023/04/28 05:02:38;;;;;;;5.85;2.88;;;;;;;;;;5059704;28;20041;-81
2023/04/28 05:05:03;;;;;;;5.15;2.63;;;;;;;;;;5052290;28;20041;-78
2023/04/28 05:07:29;;;;;;;8.13;3.05;;;;;;;;;;5033027;28;20033;-81
2023/04/28 05:09:54;;;;;;;8.07;3.22;;;;;;;;;;5041052;28;20041;-81
2023/04/28 05:12:20;;;;;;;7.78;3.20;;;;;;;;;;5050792;28;20040;-81
2023/04/28 05:14:45;;;;;;;5.38;2.55;;;;;;;;;;5053494;28;20279;-81
2023/04/28 05:17:11;;;;;;;6.88;2.78;;;;;;;;;;5053796;28;20049;-81
2023/04/28 05:19:36;;;;;;;10.18;3.25;;;;;;;;;;5050964;28;20036;-81
2023/04/28 05:22:01;;;;;;;5.03;2.63;;;;;;;;;;5039019;28;20110;-81
2023/04/28 05:24:30;;;;;;;7.68;3.08;;;;;;;;;;5052095;28;20029;-80
2023/04/28 05:26:57;;;;;;;5.95;2.80;;;;;;;;;;5043337;28;20128;-81
2023/04/28 05:29:23;;;;;;;6.45;2.85;;;;;;;;;;5034100;28;20099;-80
2023/04/28 05:31:48;;;;;;;7.28;3.10;;;;;;;;;;5059520;28;20392;-81
2023/04/28 05:34:14;;;;;;;6.03;2.75;;;;;;;;;;5053057;28;20033;-82
2023/04/28 05:36:40;;;;;;;19.30;5.90;;;;;;;;;;5050581;28;20093;-82
2023/04/28 05:39:05;;;;;;;10.07;2.95;;;;;;;;;;5053650;28;20044;-81
2023/04/28 05:41:31;;;;;;;6.63;2.83;;;;;;;;;;5053822;28;20032;-81
2023/04/28 05:43:56;;;;;;;7.47;3.10;;;;;;;;;;5049963;28;20045;-82
2023/04/28 05:46:22;;;;;;;16.00;6.30;;;;;;;;;;5049395;28;20025;-82
2023/04/28 05:48:47;;;;;;;6.78;2.97;;;;;;;;;;5048774;28;20024;-81
2023/04/28 05:51:12;;;;;;;7.05;3.00;;;;;;;;;;5063536;28;20067;-81
2023/04/28 05:53:38;;;;;;;4.78;2.45;;;;;;;;;;5049773;28;20035;-81
2023/04/28 05:56:03;;;;;;;5.72;2.90;;;;;;;;;;5052357;28;20032;-81
2023/04/28 05:58:29;;;;;;;6.15;2.22;;;;;;;;;;5057817;28;20541;-82
2023/04/28 06:00:54;;;;;;;5.22;2.30;;;;;;;;;;5054066;28;20032;-81
2023/04/28 06:03:20;;;;;;;6.43;2.42;;;;;;;;;;5056161;28;20032;-81
2023/04/28 06:05:45;;;;;;;7.00;2.58;;;;;;;;;;5052178;28;20080;-82
2023/04/28 06:08:11;;;;;;;6.63;2.72;;;;;;;;;;5053298;28;20041;-82
2023/04/28 06:10:36;;;;;;;5.15;1.95;;;;;;;;;;5056921;28;20059;-82
2023/04/28 06:13:03;;;;;;;4.90;2.33;;;;;;;;;;5060173;28;20128;-81
2023/04/28 06:15:29;;;;;;;5.20;2.50;;;;;;;;;;5048362;28;20039;-82
2023/04/28 06:17:54;;;;;;;5.35;2.33;;;;;;;;;;5056162;28;20762;-80
2023/04/28 06:20:20;;;;;;;5.05;2.20;;;;;;;;;;5049866;28;20036;-80
2023/04/28 06:22:45;;;;;;;4.97;2.47;;;;;;;;;;5055966;28;20869;-80
2023/04/28 06:25:10;;;;;;;5.68;2.22;;;;;;;;;;5061259;28;20037;-79
2023/04/28 06:27:36;;;;;;;5.95;2.38;;;;;;;;;;5039111;28;20082;-80
2023/04/28 06:30:01;;;;;;;8.05;2.40;;;;;;;;;;5054518;28;20120;-80
2023/04/28 06:32:27;;;;;;;5.95;2.22;;;;;;;;;;5056496;28;20036;-81
2023/04/28 06:34:52;;;;;;;4.45;2.20;;;;;;;;;;5054206;28;20120;-81
2023/04/28 06:37:18;;;;;;;5.50;2.25;;;;;;;;;;5057632;28;20036;-80
2023/04/28 06:39:43;;;;;;;6.88;2.63;;;;;;;;;;5054132;28;20094;-82
2023/04/28 06:42:08;;;;;;;5.00;2.30;;;;;;;;;;5061676;28;20056;-80
2023/04/28 06:44:34;;;;;;;9.23;2.60;;;;;;;;;;5054981;28;20440;-80
2023/04/28 06:46:59;;;;;;;10.02;2.80;;;;;;;;;;5055432;28;20443;-81
2023/04/28 06:49:25;;;;;;;8.88;3.85;;;;;;;;;;5054399;28;20045;-79
2023/04/28 06:51:50;;;;;;;5.90;2.85;;;;;;;;;;5054265;28;20032;-81
2023/04/28 06:54:16;;;;;;;7.88;2.40;;;;;;;;;;5053854;28;20033;-81
2023/04/28 06:56:41;;;;;;;4.93;2.42;;;;;;;;;;5053863;28;20369;-81
2023/04/28 06:59:07;;;;;;;6.43;2.20;;;;;;;;;;5054421;28;20036;-80
2023/04/28 07:01:32;;;;;;;4.38;2.15;;;;;;;;;;5054348;28;20032;-82
2023/04/28 07:03:57;;;;;;;5.25;2.60;;;;;;;;;;5041670;28;20040;-81
2023/04/28 07:06:23;;;;;;;3.90;2.22;;;;;;;;;;5055118;28;20040;-81
2023/04/28 07:08:48;;;;;;;3.50;2.05;;;;;;;;;;5054341;28;20184;-80
2023/04/28 07:11:15;;;;;;;5.05;2.28;;;;;;;;;;5053054;28;20107;-81
2023/04/28 07:13:40;;;;;;;5.75;2.58;;;;;;;;;;5054523;28;20082;-80
2023/04/28 07:16:06;;;;;;;5.25;2.38;;;;;;;;;;5056872;28;20041;-80
2023/04/28 07:18:32;;;;;;;5.18;2.35;;;;;;;;;;5059904;28;20942;-81
2023/04/28 07:20:57;;;;;;;4.82;2.50;;;;;;;;;;5057007;28;20063;-80
2023/04/28 07:23:23;;;;;;;6.93;3.30;;;;;;;;;;5057052;28;20040;-81
2023/04/28 07:25:48;;;;;;;6.00;2.80;;;;;;;;;;5054090;28;20045;-78
2023/04/28 07:28:13;;;;;;;7.15;2.78;;;;;;;;;;5058449;28;20036;-81
2023/04/28 07:30:39;;;;;;;7.35;2.40;;;;;;;;;;5058852;28;20064;-78
2023/04/28 07:33:04;;;;;;;6.57;2.70;;;;;;;;;;5058835;28;20189;-79
2023/04/28 07:35:30;;;;;;;5.85;2.30;;;;;;;;;;5056851;28;25582;-81
2023/04/28 07:37:56;;;;;;;6.13;2.88;;;;;;;;;;5060500;28;20094;-80
2023/04/28 07:40:22;;;;;;;6.03;2.67;;;;;;;;;;5042668;28;20047;-80
2023/04/28 07:42:48;;;;;;;7.78;2.65;;;;;;;;;;5056267;28;20406;-80
2023/04/28 07:45:15;;;;;;;5.50;2.30;;;;;;;;;;5056773;28;20139;-80
2023/04/28 07:47:40;;;;;;;8.52;2.85;;;;;;;;;;5056203;28;20025;-80
2023/04/28 07:50:27;;;;;;;6.97;2.97;;;;;;;;;;5057406;28;20531;-79
2023/04/28 07:52:53;;;;;;;7.25;2.70;;;;;;;;;;4975244;28;20042;-80
2023/04/28 07:55:18;;;;;;;6.88;2.50;;;;;;;;;;4963383;28;20454;-80
2023/04/28 07:57:43;;;;;;;5.22;2.80;;;;;;;;;;4962936;28;20039;-79
2023/04/28 08:00:10;;;;;;;5.45;2.45;;;;;;;;;;4982719;28;20104;-80
2023/04/28 08:02:36;;;;;;;5.53;2.20;;;;;;;;;;4980662;28;20629;-81
2023/04/28 08:05:01;;;;;;;5.53;2.83;;;;;;;;;;4962074;28;20113;-80
2023/04/28 08:07:27;;;;;;;7.30;2.78;;;;;;;;;;4966950;28;20043;-80
2023/04/28 08:09:54;;;;;;;8.70;2.83;;;;;;;;;;4969628;28;20043;-80
2023/04/28 08:12:19;;;;;;;6.10;2.63;;;;;;;;;;4977278;28;20035;-80
2023/04/28 08:14:44;;;;;;;8.00;2.90;;;;;;;;;;4979099;28;20045;-80
2023/04/28 08:17:10;;;;;;;7.60;2.95;;;;;;;;;;4978034;28;20118;-80
2023/04/28 08:19:36;;;;;;;5.38;2.42;;;;;;;;;;4959587;28;20374;-79
2023/04/28 08:22:04;;;;;;;6.60;2.45;;;;;;;;;;4974254;28;20053;-80
2023/04/28 08:24:33;;;;;;;7.70;2.35;;;;;;;;;;4956477;28;20038;-80
2023/04/28 08:27:01;;;;;;;7.00;2.40;;;;;;;;;;4959691;28;20177;-80
2023/04/28 08:29:28;;;;;;;5.47;2.33;;;;;;;;;;5001163;28;20032;-81
2023/04/28 08:31:54;;;;;;;8.25;2.58;;;;;;;;;;5043324;28;20147;-80
2023/04/28 08:34:19;;;;;;;4.22;2.08;;;;;;;;;;5036510;28;20128;-81
2023/04/28 08:36:45;;;;;;;5.88;2.67;;;;;;;;;;5050211;28;20032;-80
2023/04/28 08:39:10;;;;;;;6.00;2.15;;;;;;;;;;5056509;28;20048;-80
2023/04/28 08:41:38;;;;;;;7.25;2.38;;;;;;;;;;5054737;28;20117;-80
2023/04/28 08:44:06;;;;;;;;;;;;;;;;;;5039433;28;20588;-80
2023/04/28 08:46:32;;;;;;;6.82;2.42;;;;;;;;;;5054919;28;20438;-80
2023/04/28 08:49:02;;;;;;;5.13;2.45;;;;;;;;;;5054899;28;20568;-80
2023/04/28 08:51:44;;;;;;;5.65;2.53;;;;;;;;;;5035890;28;20538;-80
2023/04/28 08:54:10;;;;;;;7.32;2.75;;;;;;;;;;5060861;28;20040;-80
2023/04/28 08:56:36;;;;;;;8.30;2.63;;;;;;;;;;5055610;28;20036;-79
2023/04/28 08:59:03;;;;;;;10.13;3.00;;;;;;;;;;5039082;28;20290;-80
2023/04/28 09:01:29;;;;;;;6.15;2.88;;;;;;;;;;5060571;28;20052;-80
2023/04/28 09:03:55;;;;;;;7.28;2.90;;;;;;;;;;5037199;28;20060;-80
2023/04/28 09:06:21;;;;;;;7.15;2.67;;;;;;;;;;5056947;28;20031;-80
2023/04/28 09:08:50;;;;;;;7.65;3.03;;;;;;;;;;5050618;28;20519;-80
2023/04/28 09:11:16;;;;;;;5.47;2.92;;;;;;;;;;5054634;28;20154;-79
2023/04/28 09:13:41;;;;;;;7.60;2.95;;;;;;;;;;5065650;28;20103;-80
2023/04/28 09:16:07;;;;;;;7.85;4.30;;;;;;;;;;5049385;28;20137;-79
2023/04/28 09:18:32;;;;;;;5.97;2.70;;;;;;;;;;5057685;28;20036;-80
2023/04/28 09:21:08;;;;;;;4.82;2.50;;;;;;;;;;5052540;28;20043;-80
2023/04/28 09:23:34;;;;;;;6.78;2.85;;;;;;;;;;5058898;28;20037;-79
2023/04/28 09:25:59;;;;;;;5.25;2.80;;;;;;;;;;5063003;28;20119;-79
2023/04/28 09:28:25;;;;;;;7.40;2.92;;;;;;;;;;5054708;28;20036;-79
2023/04/28 09:30:52;;;;;;;7.40;3.00;;;;;;;;;;5054535;28;20048;-79
2023/04/28 09:33:17;;;;;;;5.10;2.42;;;;;;;;;;5049781;28;20276;-79
2023/04/28 09:35:44;;;;;;;8.70;2.97;;;;;;;;;;5053225;28;20035;-79
2023/04/28 09:38:10;;;;;;;7.30;2.83;;;;;;;;;;5050586;28;20036;-79
2023/04/28 09:40:51;;;;;;;7.60;2.67;;;;;;;;;;5051842;28;20059;-79
2023/04/28 09:43:31;;;;;;;7.38;2.63;;;;;;;;;;5055275;28;20189;-80
2023/04/28 09:45:58;;;;;;;5.53;2.22;;;;;;;;;;5060885;28;20051;-80
2023/04/28 09:48:28;;;;;;;6.60;2.90;;;;;;;;;;5067614;28;20036;-80
2023/04/28 09:50:54;;;;;;;5.00;2.65;;;;;;;;;;5052970;28;20072;-80
2023/04/28 09:53:22;;;;;;;5.78;3.00;;;;;;;;;;5054560;28;20089;-79
2023/04/28 09:55:48;;;;;;;;;;;;;;;;;;5062396;28;20422;-79
2023/04/28 09:58:15;;;;;;;7.50;2.83;;;;;;;;;;5054606;28;19982;-79
2023/04/28 10:00:40;;;;;;;7.72;2.60;;;;;;;;;;5054526;28;20028;-80
2023/04/28 10:03:08;;;;;;;6.53;3.10;;;;;;;;;;5041326;28;20044;-79
2023/04/28 10:05:34;;;;;;;6.15;2.75;;;;;;;;;;5055509;28;20040;-79
2023/04/28 10:08:01;;;;;;;9.35;3.13;;;;;;;;;;5060013;28;20109;-80
2023/04/28 10:10:28;;;;;;;4.93;2.80;;;;;;;;;;5057997;28;20041;-79
2023/04/28 10:12:54;;;;;;;4.57;2.45;;;;;;;;;;5056078;28;20045;-79
2023/04/28 10:15:19;;;;;;;4.80;2.65;;;;;;;;;;5036505;28;20029;-79
2023/04/28 10:17:47;;;;;;;5.43;2.38;;;;;;;;;;5056177;28;20542;-80
2023/04/28 10:20:14;;;;;;;6.97;2.83;;;;;;;;;;5061494;28;20373;-80
2023/04/28 10:22:45;;;;;;;5.18;2.53;;;;;;;;;;5053267;28;20488;-80
2023/04/28 10:25:10;;;;;;;4.78;2.60;;;;;;;;;;5050661;28;20302;-80
2023/04/28 10:27:38;;;;;;;6.03;2.80;;;;;;;;;;5061273;28;20037;-79
2023/04/28 10:30:20;;;;;;;5.30;2.80;;;;;;;;;;5053609;28;20052;-80
2023/04/28 10:32:46;;;;;;;6.78;2.90;;;;;;;;;;5053729;28;20036;-81
2023/04/28 10:35:24;;;;;;;4.95;2.55;;;;;;;;;;5053426;28;20040;-81
2023/04/28 10:38:16;;;;;;;6.03;2.88;;;;;;;;;;5055192;28;20079;-80
2023/04/28 10:40:45;;;;;;;5.35;3.00;;;;;;;;;;5053584;28;20033;-81
2023/04/28 10:43:36;;;;;;;5.40;2.70;;;;;;;;;;5050106;28;20028;-79
2023/04/28 10:46:06;;;;;;;7.18;3.10;;;;;;;;;;5044091;28;20515;-80
2023/04/28 10:48:31;;;;;;;6.63;2.92;;;;;;;;;;5054217;28;20148;-81
2023/04/28 10:51:11;;;;;;;6.05;2.97;;;;;;;;;;5061431;28;20147;-81
2023/04/28 10:53:45;;;;;;;7.35;3.00;;;;;;;;;;5054563;28;20032;-80
2023/04/28 10:56:21;;;;;;;10.10;3.00;;;;;;;;;;5051215;28;20539;-80
2023/04/28 10:58:50;;;;;;;6.25;3.50;;;;;;;;;;5059742;28;20036;-80
2023/04/28 11:01:25;;;;;;;6.45;2.88;;;;;;;;;;5059737;28;20043;-80
2023/04/28 11:04:06;;;;;;;7.85;3.30;;;;;;;;;;5043791;28;20036;-80
2023/04/28 11:06:56;;;;;;;6.47;3.22;;;;;;;;;;5052643;28;20033;-80
2023/04/28 11:09:30;;;;;;;6.50;2.92;;;;;;;;;;5019849;28;20080;-80
2023/04/28 11:11:58;;;;;;;6.10;2.92;;;;;;;;;;5007096;28;20048;-81
2023/04/28 11:14:24;;;;;;;5.60;3.17;;;;;;;;;;5025246;28;20040;-81
2023/04/28 11:17:02;;;;;;;7.95;3.20;;;;;;;;;;5026763;28;20120;-80
2023/04/28 11:19:29;;;;;;;6.40;2.97;;;;;;;;;;5011261;28;20033;-80
2023/04/28 11:21:56;;;;;;;6.28;2.85;;;;;;;;;;5006757;28;20572;-80
2023/04/28 11:24:24;;;;;;;6.28;3.30;;;;;;;;;;4998583;28;20069;-80
2023/04/28 11:26:50;;;;;;;6.68;2.97;;;;;;;;;;5023187;28;20522;-80
2023/04/28 11:29:15;;;;;;;7.55;3.28;;;;;;;;;;5025793;28;20034;-81
2023/04/28 11:31:48;;;;;;;7.03;3.03;;;;;;;;;;5002652;28;20034;-80
2023/04/28 11:34:18;;;;;;;6.60;3.40;;;;;;;;;;5024564;28;20160;-80
2023/04/28 11:36:44;;;;;;;8.25;3.35;;;;;;;;;;5024865;28;20045;-80
2023/04/28 11:39:11;;;;;;;6.32;3.17;;;;;;;;;;4990923;28;20041;-81
2023/04/28 11:41:41;;;;;;;7.03;3.28;;;;;;;;;;5023599;28;20033;-80
2023/04/28 11:44:15;;;;;;;6.82;3.30;;;;;;;;;;5002356;28;20072;-80
2023/04/28 11:46:54;;;;;;;6.18;3.20;;;;;;;;;;5041706;28;20501;-80
2023/04/28 11:49:21;;;;;;;7.43;3.40;;;;;;;;;;5040633;28;20041;-80
2023/04/28 11:51:53;;;;;;;6.65;3.50;;;;;;;;;;5060565;28;20492;-80
2023/04/28 11:54:26;;;;;;;9.80;2.83;;;;;;;;;;5038631;28;20033;-80
2023/04/28 11:56:52;;;;;;;8.15;3.13;;;;;;;;;;5052658;28;20457;-80
2023/04/28 11:59:23;;;;;;;6.32;3.13;;;;;;;;;;5052861;28;20029;-80
2023/04/28 12:01:50;;;;;;;7.60;3.70;;;;;;;;;;5064385;28;20033;-79
2023/04/28 12:04:40;;;;;;;7.35;3.20;;;;;;;;;;5036075;28;20036;-80
2023/04/28 12:07:16;;;;;;;5.95;2.80;;;;;;;;;;5052194;28;20804;-78
2023/04/28 12:09:43;;;;;;;6.90;2.80;;;;;;;;;;5039191;28;20075;-79
2023/04/28 12:12:27;;;;;;;7.43;3.15;;;;;;;;;;5037391;28;20119;-79
2023/04/28 12:15:00;;;;;;;6.65;3.45;;;;;;;;;;5054769;28;20041;-78
2023/04/28 12:17:37;;;;;;;6.50;3.38;;;;;;;;;;5053486;28;20043;-79
2023/04/28 12:20:05;;;;;;;6.22;3.03;;;;;;;;;;5051400;28;20059;-79
2023/04/28 12:22:30;;;;;;;;;;;;;;;;;;5035030;28;20059;-80
2023/04/28 12:25:06;;;;;;;6.32;2.92;;;;;;;;;;5051526;28;20368;-80
2023/04/28 12:27:33;;;;;;;7.13;3.80;;;;;;;;;;5049486;28;20506;-80
2023/04/28 12:29:58;;;;;;;6.93;3.20;;;;;;;;;;5051417;28;20037;-80
2023/04/28 12:32:47;;;;;;;5.40;2.83;;;;;;;;;;5052699;28;20044;-81
2023/04/28 12:35:13;;;;;;;5.95;2.80;;;;;;;;;;5058684;28;20045;-81
2023/04/28 12:37:40;;;;;;;6.63;3.03;;;;;;;;;;5049432;28;20025;-82
2023/04/28 12:40:06;;;;;;;5.82;2.95;;;;;;;;;;5042464;28;20068;-81
2023/04/28 12:42:32;;;;;;;5.47;3.03;;;;;;;;;;5042650;28;20400;-81
2023/04/28 12:44:57;;;;;;;6.53;2.90;;;;;;;;;;5051505;28;20021;-80
2023/04/28 12:47:23;;;;;;;6.07;3.05;;;;;;;;;;5038825;28;20029;-81
2023/04/28 12:49:51;;;;;;;5.90;2.65;;;;;;;;;;5037589;28;20044;-81
2023/04/28 12:52:20;;;;;;;8.77;2.90;;;;;;;;;;5050542;28;20039;-81
2023/04/28 12:54:46;;;;;;;5.80;2.72;;;;;;;;;;5052744;28;20043;-81
2023/04/28 12:57:16;;;;;;;4.90;2.75;;;;;;;;;;5058261;28;20044;-80
2023/04/28 12:59:41;;;;;;;5.82;2.85;;;;;;;;;;5060294;28;20040;-79
2023/04/28 13:02:07;;;;;;;7.90;2.72;;;;;;;;;;5051338;28;20040;-79
2023/04/28 13:04:32;;;;;;;7.35;2.88;;;;;;;;;;5050939;28;20048;-79
2023/04/28 13:06:58;;;;;;;6.63;2.70;;;;;;;;;;5049655;28;20507;-80
2023/04/28 13:09:25;;;;;;;6.13;3.40;;;;;;;;;;5053760;28;20124;-80
2023/04/28 13:11:52;;;;;;;7.03;3.00;;;;;;;;;;5064456;28;20596;-80
2023/04/28 13:14:18;;;;;;;6.10;2.92;;;;;;;;;;5054560;28;20029;-81
2023/04/28 13:16:44;;;;;;;9.52;4.70;;;;;;;;;;5051761;28;20507;-79
2023/04/28 13:19:12;;;;;;;6.65;3.00;;;;;;;;;;5050345;28;20037;-82
2023/04/28 13:21:38;;;;;;;4.88;2.40;;;;;;;;;;5052517;28;20555;-83
2023/04/28 13:24:04;;;;;;;7.78;3.53;;;;;;;;;;5054825;28;20857;-83
2023/04/28 13:26:30;;;;;;;8.05;2.90;;;;;;;;;;5049418;28;20136;-81
2023/04/28 13:28:55;;;;;;;6.35;2.97;;;;;;;;;;5053929;28;20040;-82
2023/04/28 13:31:21;;;;;;;5.90;2.88;;;;;;;;;;5052604;28;20041;-82
2023/04/28 13:33:46;;;;;;;6.75;3.20;;;;;;;;;;5051040;28;20038;-82
2023/04/28 13:36:12;;;;;;;5.60;2.92;;;;;;;;;;5036773;28;20502;-82
2023/04/28 13:38:37;;;;;;;8.60;3.53;;;;;;;;;;5053666;28;20039;-81
2023/04/28 13:41:03;;;;;;;7.03;3.40;;;;;;;;;;5048327;28;20033;-82
2023/04/28 13:43:29;;;;;;;6.72;2.95;;;;;;;;;;5054457;28;20090;-80
2023/04/28 13:45:55;;;;;;;7.00;3.17;;;;;;;;;;5052662;28;20045;-79
2023/04/28 13:48:20;;;;;;;5.72;2.72;;;;;;;;;;5052292;28;20443;-80
2023/04/28 13:50:46;;;;;;;9.77;3.03;;;;;;;;;;5049666;28;20114;-80
2023/04/28 13:53:11;;;;;;;9.25;3.30;;;;;;;;;;5044176;28;20060;-80
2023/04/28 13:55:37;;;;;;;7.57;3.40;;;;;;;;;;5038959;28;20028;-81
2023/04/28 13:58:03;;;;;;;6.07;2.95;;;;;;;;;;5044088;28;20039;-80
2023/04/28 14:00:33;;;;;;;7.53;3.13;;;;;;;;;;5048593;28;20093;-81
2023/04/28 14:02:59;;;;;;;5.90;2.80;;;;;;;;;;5059080;28;20106;-80
2023/04/28 14:05:25;;;;;;;5.47;3.30;;;;;;;;;;5049858;28;20524;-80
2023/04/28 14:07:53;;;;;;;7.55;3.65;;;;;;;;;;5040800;28;20131;-80
2023/04/28 14:10:19;;;;;;;7.70;3.35;;;;;;;;;;5058348;28;20270;-80
2023/04/28 14:12:45;;;;;;;8.15;3.42;;;;;;;;;;5051542;28;20037;-81
2023/04/28 14:15:10;;;;;;;5.80;3.47;;;;;;;;;;5052337;28;20039;-81
2023/04/28 14:17:36;;;;;;;5.65;3.47;;;;;;;;;;5038386;28;20918;-80
2023/04/28 14:20:02;;;;;;;6.07;3.15;;;;;;;;;;5059045;28;20845;-81
2023/04/28 14:22:47;;;;;;;6.32;3.85;;;;;;;;;;5065243;28;20025;-80
2023/04/28 14:25:13;;;;;;;8.70;3.70;;;;;;;;;;4974166;28;20603;-81
2023/04/28 14:27:38;;;;;;;6.93;3.78;;;;;;;;;;4963514;28;20097;-82
2023/04/28 14:30:04;;;;;;;8.18;3.42;;;;;;;;;;4964767;28;20055;-80
2023/04/28 14:32:29;;;;;;;7.47;3.15;;;;;;;;;;4991536;28;20042;-80
2023/04/28 14:34:55;;;;;;;8.23;3.53;;;;;;;;;;4975499;28;20046;-81
2023/04/28 14:37:20;;;;;;;6.88;3.40;;;;;;;;;;4991419;28;20034;-80
2023/04/28 14:39:45;;;;;;;6.30;3.10;;;;;;;;;;4975908;28;20039;-80
2023/04/28 14:42:11;;;;;;;7.90;3.45;;;;;;;;;;4975176;28;20062;-81